createdAt,value
2023-03-07T00:02:09.075Z,1.00
2023-03-07T00:04:14.680Z,1.00
2023-03-07T00:06:19.891Z,1.00
2023-03-07T00:08:25.228Z,1.00
2023-03-07T00:10:31.852Z,1.00
2023-03-07T00:12:39.158Z,1.00
2023-03-07T00:14:44.849Z,1.00
2023-03-07T00:16:52.299Z,1.00
2023-03-07T00:19:01.423Z,1.00
2023-03-07T00:21:09.652Z,1.00
2023-03-07T00:23:15.230Z,1.00
2023-03-07T00:25:21.466Z,1.00
2023-03-07T00:27:29.835Z,1.00
2023-03-07T00:29:35.467Z,1.00
2023-03-07T00:31:42.501Z,1.00
2023-03-07T00:33:47.506Z,1.00
2023-03-07T00:36:06.535Z,1.00
2023-03-07T00:38:11.503Z,1.00
2023-03-07T00:40:16.865Z,1.00
2023-03-07T00:42:24.938Z,1.00
2023-03-07T00:44:30.354Z,1.00
2023-03-07T00:46:35.674Z,1.00
2023-03-07T00:48:43.077Z,1.00
2023-03-07T00:50:48.749Z,1.00
2023-03-07T00:52:58.091Z,1.00
2023-03-07T00:55:03.794Z,1.00
2023-03-07T00:57:08.970Z,1.00
2023-03-07T00:59:16.270Z,1.00
2023-03-07T01:01:25.688Z,1.00
2023-03-07T01:03:31.113Z,1.00
2023-03-07T01:05:39.337Z,17.70
2023-03-07T01:07:44.388Z,42.20
2023-03-07T01:09:56.245Z,70.50
2023-03-07T01:12:01.228Z,76.10
2023-03-07T01:14:08.785Z,69.10
2023-03-07T01:16:18.519Z,72.30
2023-03-07T01:18:24.565Z,81.20
2023-03-07T01:20:29.932Z,83.10
2023-03-07T01:22:38.102Z,83.50
2023-03-07T01:24:47.423Z,83.70
2023-03-07T01:26:55.822Z,87.30
2023-03-07T01:29:05.101Z,90.80
2023-03-07T01:31:12.944Z,89.80
2023-03-07T01:33:19.326Z,87.50
2023-03-07T01:35:25.314Z,91.70
2023-03-07T01:37:36.242Z,88.50
2023-03-07T01:39:44.649Z,86.70
2023-03-07T01:41:56.388Z,88.40
2023-03-07T01:44:16.135Z,83.90
2023-03-07T01:46:47.165Z,88.80
2023-03-07T01:48:58.527Z,92.10
2023-03-07T01:51:04.841Z,92.60
2023-03-07T01:53:11.626Z,92.00
2023-03-07T01:55:22.604Z,90.00
2023-03-07T01:57:39.412Z,94.60
2023-03-07T01:59:48.985Z,95.30
2023-03-07T02:01:54.484Z,94.60
2023-03-07T02:04:06.031Z,94.00
2023-03-07T02:06:15.584Z,96.60
2023-03-07T02:08:27.151Z,95.90
2023-03-07T02:10:33.146Z,94.60
2023-03-07T02:12:43.378Z,96.40
2023-03-07T02:14:53.727Z,99.70
2023-03-07T02:16:59.439Z,99.90
2023-03-07T02:19:05.493Z,99.90
2023-03-07T02:21:20.542Z,99.90
2023-03-07T02:23:36.534Z,99.90
2023-03-07T02:25:49.387Z,99.80
2023-03-07T02:28:00.372Z,99.90
2023-03-07T02:30:13.033Z,99.90
2023-03-07T02:32:21.629Z,99.90
2023-03-07T02:34:29.230Z,99.90
2023-03-07T02:36:45.777Z,99.90
2023-03-07T02:38:59.896Z,99.90
2023-03-07T02:41:05.415Z,99.90
2023-03-07T02:43:17.693Z,99.90
2023-03-07T02:45:23.336Z,99.90
2023-03-07T02:47:29.314Z,99.90
2023-03-07T02:49:36.444Z,99.90
2023-03-07T02:51:45.244Z,99.90
2023-03-07T02:53:51.754Z,99.90
2023-03-07T02:55:58.807Z,99.90
2023-03-07T02:58:04.299Z,99.90
2023-03-07T03:00:14.945Z,99.90
2023-03-07T03:02:22.877Z,99.90
2023-03-07T03:04:27.891Z,99.90
2023-03-07T03:06:34.041Z,99.90
2023-03-07T03:08:41.001Z,99.90
2023-03-07T03:10:46.431Z,99.90
2023-03-07T03:12:52.114Z,99.90
2023-03-07T03:14:58.549Z,99.90
2023-03-07T03:17:06.204Z,99.90
2023-03-07T03:19:11.358Z,99.90
2023-03-07T03:21:16.552Z,99.90
2023-03-07T03:23:22.562Z,99.90
2023-03-07T03:25:29.558Z,99.90
2023-03-07T03:29:43.433Z,99.90
2023-03-07T03:31:51.913Z,99.90
2023-03-07T03:34:01.023Z,99.90
2023-03-07T03:36:11.588Z,99.90
2023-03-07T03:38:17.029Z,99.90
2023-03-07T03:40:24.766Z,99.90
2023-03-07T03:42:30.332Z,99.90
2023-03-07T03:44:35.295Z,99.90
2023-03-07T03:46:40.776Z,99.90
2023-03-07T03:48:46.447Z,99.90
2023-03-07T03:50:54.030Z,99.90
2023-03-07T03:52:58.930Z,99.90
2023-03-07T03:55:03.830Z,99.90
2023-03-07T03:57:08.906Z,99.90
2023-03-07T03:59:13.825Z,99.90
2023-03-07T04:01:19.134Z,99.90
2023-03-07T04:03:24.595Z,99.90
2023-03-07T04:05:32.054Z,99.90
2023-03-07T04:07:41.775Z,99.90
2023-03-07T04:09:47.123Z,99.90
2023-03-07T04:11:52.260Z,99.90
2023-03-07T04:13:57.597Z,99.90
2023-03-07T04:16:03.152Z,99.90
2023-03-07T04:18:08.279Z,99.90
2023-03-07T04:20:18.100Z,99.90
2023-03-07T04:22:26.609Z,99.90
2023-03-07T04:24:35.466Z,99.90
2023-03-07T04:26:40.527Z,99.90
2023-03-07T04:28:46.887Z,99.90
2023-03-07T04:30:56.538Z,99.90
2023-03-07T04:33:02.602Z,99.90
2023-03-07T04:35:09.257Z,99.90
2023-03-07T04:37:14.505Z,99.90
2023-03-07T04:39:20.814Z,99.90
2023-03-07T04:41:29.141Z,99.90
2023-03-07T04:43:42.187Z,99.90
2023-03-07T04:45:48.129Z,99.90
2023-03-07T04:47:53.669Z,99.90
2023-03-07T04:49:59.153Z,99.90
2023-03-07T04:52:07.965Z,99.90
2023-03-07T04:54:13.171Z,99.90
2023-03-07T04:56:20.358Z,99.90
2023-03-07T04:58:28.897Z,99.90
2023-03-07T05:00:36.545Z,99.90
2023-03-07T05:02:41.316Z,99.90
2023-03-07T05:04:46.736Z,99.90
2023-03-07T05:06:52.453Z,99.90
2023-03-07T05:08:59.113Z,99.90
2023-03-07T05:11:04.699Z,99.90
2023-03-07T05:13:11.177Z,99.90
2023-03-07T05:15:19.264Z,99.90
2023-03-07T05:17:24.913Z,99.90
2023-03-07T05:19:30.737Z,99.90
2023-03-07T05:21:40.311Z,99.90
2023-03-07T05:23:45.447Z,99.90
2023-03-07T05:25:51.942Z,99.90
2023-03-07T05:27:56.884Z,99.90
2023-03-07T05:30:02.680Z,99.90
2023-03-07T05:32:11.560Z,99.90
2023-03-07T05:34:19.477Z,99.90
2023-03-07T05:36:25.843Z,99.90
2023-03-07T05:38:30.989Z,99.90
2023-03-07T05:40:36.106Z,99.90
2023-03-07T05:42:42.505Z,99.90
2023-03-07T05:44:48.639Z,99.90
2023-03-07T05:46:54.330Z,99.90
2023-03-07T05:49:03.156Z,99.90
2023-03-07T05:51:08.935Z,99.90
2023-03-07T05:53:14.232Z,99.90
2023-03-07T05:55:20.514Z,99.90
2023-03-07T05:57:26.284Z,99.90
2023-03-07T05:59:31.570Z,99.90
2023-03-07T06:01:37.514Z,99.90
2023-03-07T06:03:47.726Z,99.90
2023-03-07T06:05:55.601Z,99.90
2023-03-07T06:08:00.826Z,99.90
2023-03-07T06:10:07.104Z,99.90
2023-03-07T06:12:13.649Z,99.90
2023-03-07T06:14:21.161Z,99.90
2023-03-07T06:16:30.454Z,99.90
2023-03-07T06:18:37.475Z,99.90
2023-03-07T06:20:43.515Z,99.90
2023-03-07T06:22:52.024Z,99.90
2023-03-07T06:24:57.706Z,99.90
2023-03-07T06:27:03.970Z,99.90
2023-03-07T06:29:12.637Z,99.90
2023-03-07T06:31:20.655Z,99.90
2023-03-07T06:33:31.210Z,99.90
2023-03-07T06:35:36.945Z,99.90
2023-03-07T06:37:51.906Z,99.90
2023-03-07T06:39:57.566Z,99.90
2023-03-07T06:42:03.406Z,99.90
2023-03-07T06:44:10.995Z,99.90
2023-03-07T06:46:18.192Z,99.90
2023-03-07T06:48:23.117Z,99.90
2023-03-07T06:50:35.201Z,99.90
2023-03-07T06:52:45.330Z,99.90
2023-03-07T06:54:52.852Z,99.90
2023-03-07T06:56:57.840Z,99.90
2023-03-07T06:59:03.131Z,99.90
2023-03-07T07:01:11.805Z,99.90
2023-03-07T07:03:17.563Z,99.90
2023-03-07T07:05:23.364Z,99.90
2023-03-07T07:07:30.768Z,99.90
2023-03-07T07:09:37.207Z,99.90
2023-03-07T07:11:49.106Z,99.90
2023-03-07T07:13:54.375Z,99.90
2023-03-07T07:16:06.976Z,99.90
2023-03-07T07:18:16.206Z,99.90
2023-03-07T07:20:22.508Z,99.90
2023-03-07T07:22:28.818Z,99.90
2023-03-07T07:24:33.893Z,99.90
2023-03-07T07:26:39.698Z,99.90
2023-03-07T07:28:47.183Z,99.90
2023-03-07T07:30:52.087Z,99.90
2023-03-07T07:32:58.700Z,99.90
2023-03-07T07:35:05.963Z,99.90
2023-03-07T07:37:11.194Z,99.90
2023-03-07T07:39:17.749Z,99.90
2023-03-07T07:41:27.628Z,99.90
2023-03-07T07:43:34.691Z,99.90
2023-03-07T07:46:05.449Z,99.90
2023-03-07T07:48:12.323Z,99.90
2023-03-07T07:50:20.834Z,99.90
2023-03-07T07:52:27.347Z,99.90
2023-03-07T07:54:32.297Z,99.90
2023-03-07T07:56:38.562Z,99.90
2023-03-07T07:58:45.207Z,99.90
2023-03-07T08:00:54.216Z,99.90
2023-03-07T08:03:05.408Z,99.50
2023-03-07T08:05:12.692Z,99.20
2023-03-07T08:07:17.751Z,99.90
2023-03-07T08:09:22.703Z,93.00
2023-03-07T08:11:32.043Z,99.90
2023-03-07T08:13:36.990Z,93.50
2023-03-07T08:15:44.184Z,99.90
2023-03-07T08:17:50.451Z,89.40
2023-03-07T08:20:01.781Z,96.40
2023-03-07T08:22:10.675Z,87.20
2023-03-07T08:24:17.317Z,99.90
2023-03-07T08:26:22.276Z,94.50
2023-03-07T08:28:28.911Z,70.00
2023-03-07T08:30:37.046Z,78.50
2023-03-07T08:32:45.228Z,90.10
2023-03-07T08:36:59.705Z,93.80
2023-03-07T08:39:04.840Z,99.90
2023-03-07T08:41:11.481Z,90.10
2023-03-07T08:43:18.312Z,99.90
2023-03-07T08:45:23.312Z,96.00
2023-03-07T08:47:28.275Z,90.30
2023-03-07T08:49:33.266Z,63.90
2023-03-07T08:51:38.176Z,76.90
2023-03-07T08:53:47.049Z,86.50
2023-03-07T08:55:52.223Z,68.00
2023-03-07T08:57:58.278Z,93.40
2023-03-07T09:00:03.284Z,49.90
2023-03-07T09:02:08.841Z,99.90
2023-03-07T09:04:16.916Z,99.90
2023-03-07T09:06:25.676Z,99.90
2023-03-07T09:08:30.662Z,99.90
2023-03-07T09:10:41.491Z,99.90
2023-03-07T09:12:48.797Z,99.90
2023-03-07T09:14:58.364Z,99.90
2023-03-07T09:17:04.682Z,99.90
2023-03-07T09:19:09.737Z,99.90
2023-03-07T09:21:16.286Z,99.90
2023-03-07T09:23:22.308Z,2.30
2023-03-07T09:25:27.405Z,99.90
2023-03-07T09:27:35.240Z,99.90
2023-03-07T09:29:40.230Z,92.80
2023-03-07T09:31:45.696Z,1.00
2023-03-07T09:33:50.746Z,1.00
2023-03-07T09:35:55.839Z,1.00
2023-03-07T09:38:00.788Z,1.00
2023-03-07T09:40:08.483Z,1.00
2023-03-07T09:42:24.267Z,1.00
2023-03-07T09:44:54.075Z,1.00
2023-03-07T09:48:01.514Z,1.00
2023-03-07T09:50:18.941Z,1.00
2023-03-07T09:52:27.881Z,1.00
2023-03-07T09:54:42.588Z,1.00
2023-03-07T09:56:52.259Z,1.00
2023-03-07T09:59:20.502Z,1.00
2023-03-07T10:01:33.928Z,1.00
2023-03-07T10:03:49.822Z,1.00
2023-03-07T10:05:59.016Z,1.00
2023-03-07T10:08:05.407Z,1.00
2023-03-07T10:10:20.423Z,1.00
2023-03-07T10:12:42.898Z,1.00
2023-03-07T10:15:18.557Z,1.00
2023-03-07T10:17:54.352Z,1.00
2023-03-07T10:20:15.214Z,1.00
2023-03-07T10:22:32.706Z,1.00
2023-03-07T10:25:07.999Z,1.00
2023-03-07T10:27:15.934Z,1.00
2023-03-07T10:29:26.781Z,1.00
2023-03-07T10:31:37.897Z,1.00
2023-03-07T10:33:50.796Z,1.00
2023-03-07T10:36:03.890Z,1.00
2023-03-07T10:38:29.811Z,1.00
2023-03-07T10:40:45.791Z,1.00
2023-03-07T10:42:52.601Z,1.00
2023-03-07T10:44:57.857Z,1.00
2023-03-07T10:47:04.894Z,1.00
2023-03-07T10:49:20.224Z,1.00
2023-03-07T10:51:51.547Z,1.00
2023-03-07T10:53:58.661Z,1.00
2023-03-07T10:56:15.929Z,1.00
2023-03-07T10:58:28.024Z,1.00
2023-03-07T11:00:33.797Z,1.00
2023-03-07T11:02:45.917Z,1.00
2023-03-07T11:04:56.253Z,1.00
2023-03-07T11:07:05.114Z,1.00
2023-03-07T11:09:22.037Z,1.00
2023-03-07T11:11:35.457Z,1.00
2023-03-07T11:13:42.603Z,1.00
2023-03-07T11:15:50.978Z,1.00
2023-03-07T11:17:57.006Z,1.00
2023-03-07T11:20:06.630Z,1.00
2023-03-07T11:22:28.498Z,1.00
2023-03-07T11:24:40.425Z,1.00
2023-03-07T11:26:45.331Z,1.00
2023-03-07T11:29:11.215Z,99.90
2023-03-07T11:31:28.030Z,99.90
2023-03-07T11:33:59.110Z,99.90
2023-03-07T11:39:31.298Z,1.00
2023-03-07T11:42:18.260Z,1.00
2023-03-07T11:45:15.358Z,1.00
2023-03-07T11:48:21.606Z,1.00
2023-03-07T11:55:01.326Z,1.00
2023-03-07T11:58:37.645Z,99.90
2023-03-07T12:01:21.518Z,99.90
2023-03-07T12:04:23.306Z,99.90
2023-03-07T12:15:16.664Z,99.90
2023-03-07T12:18:52.669Z,99.90
2023-03-07T12:22:23.108Z,99.90
2023-03-07T12:26:00.224Z,99.90
2023-03-07T12:32:56.397Z,99.90
2023-03-07T12:38:38.072Z,99.90
2023-03-07T12:40:52.387Z,99.90
2023-03-07T12:43:02.014Z,99.90
2023-03-07T12:45:16.118Z,99.90
2023-03-07T12:49:50.163Z,99.90
2023-03-07T12:52:01.038Z,99.90
2023-03-07T12:54:16.058Z,99.90
2023-03-07T12:56:31.326Z,99.90
2023-03-07T13:01:02.571Z,99.90
2023-03-07T13:03:09.076Z,99.90
2023-03-07T13:05:24.272Z,99.90
2023-03-07T13:07:32.376Z,99.90
2023-03-07T13:09:43.043Z,99.90
2023-03-07T13:12:32.997Z,99.90
2023-03-07T13:14:43.801Z,99.90
2023-03-07T13:16:51.927Z,99.90
2023-03-07T13:19:17.525Z,99.90
2023-03-07T13:21:35.992Z,99.90
2023-03-07T13:23:41.339Z,99.90
2023-03-07T13:26:15.662Z,99.90
2023-03-07T13:28:53.544Z,99.90
2023-03-07T13:31:29.212Z,99.90
2023-03-07T13:33:35.402Z,99.90
2023-03-07T13:35:57.858Z,99.90
2023-03-07T13:38:04.598Z,84.70
2023-03-07T13:40:50.830Z,80.80
2023-03-07T13:42:56.491Z,56.80
2023-03-07T13:45:04.346Z,43.20
2023-03-07T13:47:40.126Z,1.00
2023-03-07T13:49:47.705Z,1.00
2023-03-07T13:56:54.912Z,1.00
2023-03-07T14:01:23.390Z,1.00
2023-03-07T14:03:34.580Z,99.90
2023-03-07T14:05:39.592Z,99.90
2023-03-07T14:07:51.575Z,99.90
2023-03-07T14:10:03.842Z,99.90
2023-03-07T14:12:31.246Z,99.90
2023-03-07T14:15:01.209Z,99.90
2023-03-07T14:17:31.784Z,99.90
2023-03-07T14:19:55.723Z,99.90
2023-03-07T14:22:09.133Z,99.90
2023-03-07T14:24:51.427Z,99.90
2023-03-07T14:27:02.071Z,99.90
2023-03-07T14:29:22.329Z,99.90
2023-03-07T14:31:32.107Z,99.90
2023-03-07T14:35:51.593Z,99.90
2023-03-07T14:38:00.151Z,99.90
2023-03-07T14:40:35.498Z,99.90
2023-03-07T14:42:48.852Z,99.90
2023-03-07T14:45:19.052Z,99.90
2023-03-07T14:47:45.734Z,99.90
2023-03-07T14:50:14.497Z,99.90
2023-03-07T14:52:30.976Z,99.90
2023-03-07T14:54:40.006Z,99.90
2023-03-07T14:56:47.231Z,99.90
2023-03-07T14:58:56.488Z,99.90
2023-03-07T15:01:03.395Z,99.90
2023-03-07T15:03:14.046Z,99.90
2023-03-07T15:05:27.741Z,99.90
2023-03-07T15:07:32.661Z,99.90
2023-03-07T15:09:38.548Z,99.90
2023-03-07T15:11:54.456Z,99.90
2023-03-07T15:14:03.733Z,99.90
2023-03-07T15:16:15.401Z,99.90
2023-03-07T15:18:27.943Z,99.90
2023-03-07T15:20:38.677Z,99.90
2023-03-07T15:22:46.710Z,99.90
2023-03-07T15:24:54.591Z,99.90
2023-03-07T15:27:00.680Z,1.00
2023-03-07T15:29:14.008Z,99.90
2023-03-07T15:31:24.920Z,99.90
2023-03-07T15:33:32.145Z,1.00
2023-03-07T15:35:40.292Z,1.00
2023-03-07T15:37:57.230Z,1.00
2023-03-07T15:40:04.584Z,1.00
2023-03-07T15:42:22.535Z,1.00
2023-03-07T15:44:27.504Z,1.00
2023-03-07T15:46:37.484Z,1.00
2023-03-07T15:48:50.373Z,1.00
2023-03-07T15:51:03.258Z,99.90
2023-03-07T15:53:17.944Z,99.90
2023-03-07T15:55:27.109Z,29.30
2023-03-07T15:57:36.657Z,99.90
2023-03-07T15:59:50.084Z,59.90
2023-03-07T16:01:55.111Z,1.00
2023-03-07T16:04:03.702Z,1.00
2023-03-07T16:06:50.957Z,1.00
2023-03-07T16:11:12.086Z,1.00
2023-03-07T16:13:23.439Z,1.00
2023-03-07T16:15:29.361Z,1.00
2023-03-07T16:17:40.648Z,1.00
2023-03-07T16:19:48.874Z,1.00
2023-03-07T16:21:57.892Z,1.00
2023-03-07T16:24:03.658Z,1.00
2023-03-07T16:26:15.104Z,1.00
2023-03-07T16:28:25.806Z,1.00
2023-03-07T16:30:37.744Z,1.00
2023-03-07T16:32:42.699Z,1.00
2023-03-07T16:34:51.099Z,1.00
2023-03-07T16:36:58.412Z,1.00
2023-03-07T16:39:04.894Z,1.00
2023-03-07T16:41:19.942Z,1.00
2023-03-07T16:43:36.249Z,1.00
2023-03-07T16:45:43.020Z,1.00
2023-03-07T16:47:53.290Z,1.00
2023-03-07T16:49:59.579Z,99.90
2023-03-07T16:52:15.005Z,99.90
2023-03-07T16:54:19.910Z,99.90
2023-03-07T16:56:29.520Z,99.90
2023-03-07T16:58:39.682Z,99.90
2023-03-07T17:00:48.190Z,99.90
2023-03-07T17:02:57.593Z,99.90
2023-03-07T17:05:06.457Z,99.90
2023-03-07T17:07:23.513Z,99.90
2023-03-07T17:09:28.421Z,99.90
2023-03-07T17:11:34.298Z,99.90
2023-03-07T17:13:40.889Z,99.90
2023-03-07T17:15:47.952Z,99.90
2023-03-07T17:17:53.237Z,99.90
2023-03-07T17:19:58.242Z,99.90
2023-03-07T17:22:04.972Z,99.90
2023-03-07T17:24:13.813Z,99.90
2023-03-07T17:26:29.869Z,99.90
2023-03-07T17:28:34.964Z,99.90
2023-03-07T17:30:42.923Z,99.90
2023-03-07T17:32:48.923Z,99.90
2023-03-07T17:34:55.999Z,99.90
2023-03-07T17:37:03.315Z,99.90
2023-03-07T17:39:09.469Z,99.90
2023-03-07T17:41:17.852Z,99.90
2023-03-07T17:43:25.504Z,99.90
2023-03-07T17:45:30.577Z,99.90
2023-03-07T17:47:38.659Z,99.90
2023-03-07T17:49:46.386Z,99.90
2023-03-07T17:51:53.028Z,99.90
2023-03-07T17:53:57.925Z,99.90
2023-03-07T17:56:13.170Z,99.90
2023-03-07T17:58:20.651Z,99.90
2023-03-07T18:00:26.901Z,99.90
2023-03-07T18:02:32.056Z,99.90
2023-03-07T18:04:37.055Z,99.90
2023-03-07T18:06:42.291Z,99.90
2023-03-07T18:08:48.514Z,99.90
2023-03-07T18:10:53.802Z,99.90
2023-03-07T18:12:58.762Z,99.90
2023-03-07T18:15:06.870Z,99.90
2023-03-07T18:17:14.403Z,99.90
2023-03-07T18:19:26.403Z,99.90
2023-03-07T18:21:32.401Z,99.90
2023-03-07T18:23:39.883Z,99.90
2023-03-07T18:25:44.802Z,99.90
2023-03-07T18:27:50.322Z,99.90
2023-03-07T18:29:57.731Z,99.90
2023-03-07T18:32:05.749Z,99.90
2023-03-07T18:34:15.272Z,99.90
2023-03-07T18:36:24.685Z,99.90
2023-03-07T18:38:30.183Z,99.90
2023-03-07T18:40:35.368Z,99.90
2023-03-07T18:42:42.524Z,99.90
2023-03-07T18:44:50.359Z,99.90
2023-03-07T18:46:57.787Z,99.90
2023-03-07T18:49:08.384Z,99.90
2023-03-07T18:53:27.946Z,99.90
2023-03-07T18:55:35.846Z,99.90
2023-03-07T18:57:40.564Z,99.90
2023-03-07T18:59:47.076Z,99.90
2023-03-07T19:01:52.284Z,99.90
2023-03-07T19:04:01.369Z,99.90
2023-03-07T19:06:11.151Z,99.90
2023-03-07T19:08:17.078Z,99.90
2023-03-07T19:10:23.541Z,99.90
2023-03-07T19:12:28.892Z,99.90
2023-03-07T19:14:36.131Z,99.90
2023-03-07T19:16:42.341Z,99.90
2023-03-07T19:18:48.039Z,99.90
2023-03-07T19:20:52.888Z,99.90
2023-03-07T19:23:00.418Z,99.90
2023-03-07T19:25:05.582Z,99.90
2023-03-07T19:27:10.480Z,99.90
2023-03-07T19:29:15.392Z,1.00
2023-03-07T19:31:22.689Z,99.90
2023-03-07T19:33:27.949Z,99.90
2023-03-07T19:35:35.430Z,99.90
2023-03-07T19:37:42.541Z,99.90
2023-03-07T19:39:54.435Z,1.00
2023-03-07T19:41:59.979Z,1.00
2023-03-07T19:44:12.068Z,1.00
2023-03-07T19:46:20.543Z,1.00
2023-03-07T19:48:26.140Z,1.00
2023-03-07T19:50:31.041Z,1.00
2023-03-07T19:54:50.996Z,99.90
2023-03-07T19:56:57.121Z,99.90
2023-03-07T19:59:08.781Z,99.90
2023-03-07T20:01:21.449Z,99.90
2023-03-07T20:03:28.722Z,99.90
2023-03-07T20:05:37.926Z,99.90
2023-03-07T20:07:47.004Z,99.90
2023-03-07T20:10:20.571Z,1.00
2023-03-07T20:12:27.236Z,99.90
2023-03-07T20:14:42.624Z,99.90
2023-03-07T20:16:47.742Z,39.80
2023-03-07T20:19:01.013Z,1.00
2023-03-07T20:21:14.197Z,1.00
2023-03-07T20:23:21.189Z,99.90
2023-03-07T20:25:32.301Z,99.90
2023-03-07T20:27:40.292Z,67.70
2023-03-07T20:29:46.302Z,1.00
2023-03-07T20:31:55.573Z,99.90
2023-03-07T20:34:02.267Z,99.90
2023-03-07T20:36:12.894Z,99.90
2023-03-07T20:38:19.730Z,99.90
2023-03-07T20:40:27.127Z,99.90
2023-03-07T20:42:37.128Z,99.90
2023-03-07T20:44:43.420Z,99.90
2023-03-07T20:46:50.585Z,99.90
2023-03-07T20:49:00.494Z,99.90
2023-03-07T20:51:20.744Z,3.00
2023-03-07T20:53:27.133Z,1.00
2023-03-07T20:55:35.925Z,1.00
2023-03-07T20:57:54.266Z,1.00
2023-03-07T21:00:00.997Z,1.00
2023-03-07T21:02:09.054Z,1.00
2023-03-07T21:04:18.483Z,1.00
2023-03-07T21:06:33.863Z,1.00
2023-03-07T21:08:41.829Z,1.00
2023-03-07T21:10:49.847Z,1.00
2023-03-07T21:12:58.051Z,1.00
2023-03-07T21:15:02.974Z,1.00
2023-03-07T21:17:09.203Z,1.00
2023-03-07T21:19:17.353Z,1.00
2023-03-07T21:21:27.506Z,1.00
2023-03-07T21:23:34.660Z,1.00
2023-03-07T21:25:39.656Z,1.00
2023-03-07T21:27:44.604Z,1.00
2023-03-07T21:29:52.230Z,1.00
2023-03-07T21:31:57.968Z,1.00
2023-03-07T21:34:05.245Z,1.00
2023-03-07T21:36:21.885Z,1.00
2023-03-07T21:38:28.264Z,1.00
2023-03-07T21:40:38.529Z,1.00
2023-03-07T21:42:43.538Z,1.00
2023-03-07T21:44:51.578Z,1.00
2023-03-07T21:46:57.858Z,1.00
2023-03-07T21:49:03.605Z,1.00
2023-03-07T21:51:20.326Z,1.00
2023-03-07T21:53:26.801Z,1.00
2023-03-07T21:55:34.117Z,1.00
2023-03-07T21:57:49.694Z,1.00
2023-03-07T21:59:58.702Z,1.00
2023-03-07T22:02:14.548Z,1.00
2023-03-07T22:04:19.627Z,1.00
2023-03-07T22:06:37.854Z,1.00
2023-03-07T22:08:44.067Z,1.00
2023-03-07T22:11:00.611Z,1.00
2023-03-07T22:13:08.954Z,1.00
2023-03-07T22:15:19.601Z,1.00
2023-03-07T22:17:24.652Z,1.00
2023-03-07T22:19:31.365Z,1.00
2023-03-07T22:21:38.001Z,1.00
2023-03-07T22:23:43.219Z,1.00
2023-03-07T22:25:48.476Z,1.00
2023-03-07T22:27:54.359Z,1.00
2023-03-07T22:30:06.637Z,1.00
2023-03-07T22:32:14.717Z,1.00
2023-03-07T22:34:27.631Z,1.00
2023-03-07T22:36:34.315Z,1.00
2023-03-07T22:38:39.311Z,1.00
2023-03-07T22:40:44.887Z,1.00
2023-03-07T22:42:55.457Z,1.00
2023-03-07T22:45:00.392Z,1.00
2023-03-07T22:47:07.094Z,1.00
2023-03-07T22:49:26.477Z,1.00
2023-03-07T22:51:32.441Z,1.00
2023-03-07T22:53:37.408Z,1.00
2023-03-07T22:55:47.123Z,1.00
2023-03-07T22:57:52.089Z,1.00
2023-03-07T23:00:23.867Z,1.00
2023-03-07T23:04:55.011Z,1.00
2023-03-07T23:07:10.549Z,1.00
2023-03-07T23:09:15.623Z,1.00
2023-03-07T23:11:24.208Z,1.00
2023-03-07T23:13:34.118Z,1.00
2023-03-07T23:15:48.478Z,1.00
2023-03-07T23:17:55.878Z,1.00
2023-03-07T23:20:04.572Z,1.00
2023-03-07T23:22:26.188Z,1.00
2023-03-07T23:24:34.454Z,1.00
2023-03-07T23:26:44.042Z,1.00
2023-03-07T23:28:49.032Z,1.00
2023-03-07T23:31:06.260Z,1.00
2023-03-07T23:33:13.638Z,1.00
2023-03-07T23:35:21.543Z,1.00
2023-03-07T23:37:27.034Z,1.00
2023-03-07T23:39:32.391Z,1.00
2023-03-07T23:41:37.617Z,1.00
2023-03-07T23:43:47.046Z,1.00
2023-03-07T23:46:09.153Z,1.00
2023-03-07T23:48:14.142Z,1.00
2023-03-07T23:50:22.403Z,1.00
2023-03-07T23:54:42.040Z,1.00
2023-03-07T23:56:47.021Z,1.00
2023-03-07T23:58:53.907Z,1.00
